createdAt,value
2017-02-10T00:00:17.645Z,22.05
2017-02-10T00:00:37.363Z,22.1
2017-02-10T00:00:56.497Z,22.08
2017-02-10T00:01:15.033Z,21.86
2017-02-10T00:01:34.723Z,21.89
2017-02-10T00:01:54.432Z,21.89
2017-02-10T00:02:13.531Z,21.82
2017-02-10T00:02:32.637Z,21.94
2017-02-10T00:02:52.349Z,21.91
2017-02-10T00:03:12.066Z,21.95
2017-02-10T00:03:31.798Z,22
2017-02-10T00:03:51.482Z,21.98
2017-02-10T00:04:11.182Z,21.89
2017-02-10T00:04:30.929Z,21.92
2017-02-10T00:04:50.646Z,21.98
2017-02-10T00:05:10.353Z,21.91
2017-02-10T00:05:29.463Z,21.89
2017-02-10T00:05:48.565Z,21.92
2017-02-10T00:06:07.097Z,21.95
2017-02-10T00:06:26.822Z,21.89
2017-02-10T00:06:46.513Z,21.95
2017-02-10T00:07:05.643Z,21.91
2017-02-10T00:07:25.350Z,22.04
2017-02-10T00:07:45.074Z,22.01
2017-02-10T00:08:04.815Z,22.04
2017-02-10T00:08:24.547Z,22.05
2017-02-10T00:08:43.695Z,22.05
2017-02-10T00:09:03.437Z,22.05
2017-02-10T00:09:23.146Z,21.95
2017-02-10T00:09:42.883Z,22.04
2017-02-10T00:10:02.197Z,22.01
2017-02-10T00:10:21.909Z,22.05
2017-02-10T00:10:41.644Z,22.01
2017-02-10T00:11:01.368Z,22.04
2017-02-10T00:11:21.087Z,22.19
2017-02-10T00:11:40.779Z,22.15
2017-02-10T00:12:00.548Z,22.17
2017-02-10T00:12:20.283Z,22.15
2017-02-10T00:12:39.977Z,22.2
2017-02-10T00:12:59.710Z,22.22
2017-02-10T00:13:19.422Z,22.19
2017-02-10T00:13:39.177Z,22.16
2017-02-10T00:13:58.917Z,22.23
2017-02-10T00:14:18.617Z,22.19
2017-02-10T00:14:38.358Z,22.15
2017-02-10T00:14:58.098Z,22.17
2017-02-10T00:15:17.795Z,22.2
2017-02-10T00:15:37.523Z,22.15
2017-02-10T00:15:57.262Z,22.13
2017-02-10T00:16:16.397Z,22.19
2017-02-10T00:16:36.125Z,22.13
2017-02-10T00:16:55.832Z,22.2
2017-02-10T00:17:15.542Z,22.2
2017-02-10T00:17:35.242Z,22.3
2017-02-10T00:17:54.958Z,22.2
2017-02-10T00:18:13.455Z,22.23
2017-02-10T00:18:33.152Z,22.17
2017-02-10T00:18:52.876Z,22.23
2017-02-10T00:19:12.549Z,22.19
2017-02-10T00:19:31.662Z,22.15
2017-02-10T00:19:51.387Z,22.15
2017-02-10T00:20:10.506Z,22.13
2017-02-10T00:20:29.652Z,22.02
2017-02-10T00:20:49.345Z,22.12
2017-02-10T00:21:09.042Z,22.15
2017-02-10T00:21:28.140Z,22.07
2017-02-10T00:21:47.852Z,22.04
2017-02-10T00:22:07.572Z,22.19
2017-02-10T00:22:26.078Z,22.1
2017-02-10T00:22:45.772Z,22.15
2017-02-10T00:23:05.527Z,22.19
2017-02-10T00:23:25.262Z,22.22
2017-02-10T00:23:44.957Z,22.17
2017-02-10T00:24:04.102Z,22.1
2017-02-10T00:24:23.853Z,22.2
2017-02-10T00:24:43.614Z,22.22
2017-02-10T00:25:03.276Z,22.16
2017-02-10T00:25:22.394Z,22.17
2017-02-10T00:25:42.130Z,22.22
2017-02-10T00:26:01.827Z,22.19
2017-02-10T00:26:21.547Z,22.26
2017-02-10T00:26:40.642Z,22.2
2017-02-10T00:27:00.359Z,22.23
2017-02-10T00:27:20.096Z,22.24
2017-02-10T00:27:39.793Z,22.24
2017-02-10T00:27:59.531Z,22.2
2017-02-10T00:28:18.711Z,22.19
2017-02-10T00:28:37.855Z,22.23
2017-02-10T00:28:57.541Z,22.23
2017-02-10T00:29:16.677Z,22.26
2017-02-10T00:29:36.411Z,22.19
2017-02-10T00:29:56.152Z,22.23
2017-02-10T00:30:16.084Z,22.22
2017-02-10T00:30:35.770Z,22.23
2017-02-10T00:30:55.464Z,22.32
2017-02-10T00:31:15.185Z,22.22
2017-02-10T00:31:34.886Z,22.31
2017-02-10T00:31:54.616Z,22.3
2017-02-10T00:32:14.326Z,22.3
2017-02-10T00:32:34.043Z,22.3
2017-02-10T00:32:53.165Z,22.24
2017-02-10T00:33:12.969Z,22.3
2017-02-10T00:33:32.081Z,22.17
2017-02-10T00:33:51.832Z,22.2
2017-02-10T00:34:10.934Z,22.16
2017-02-10T00:34:30.630Z,22.17
2017-02-10T00:34:50.343Z,22.15
2017-02-10T00:35:10.045Z,22.01
2017-02-10T00:35:29.772Z,22.07
2017-02-10T00:35:49.470Z,22.01
2017-02-10T00:36:09.192Z,21.92
2017-02-10T00:36:28.301Z,21.94
2017-02-10T00:36:47.988Z,21.91
2017-02-10T00:37:07.687Z,21.91
2017-02-10T00:37:26.181Z,21.84
2017-02-10T00:37:45.881Z,21.74
2017-02-10T00:38:04.997Z,21.76
2017-02-10T00:38:24.115Z,21.81
2017-02-10T00:38:43.876Z,21.75
2017-02-10T00:39:03.608Z,21.85
2017-02-10T00:39:23.262Z,21.76
2017-02-10T00:39:42.952Z,21.72
2017-02-10T00:40:02.674Z,21.64
2017-02-10T00:40:22.420Z,21.69
2017-02-10T00:40:42.138Z,21.69
2017-02-10T00:41:01.865Z,21.64
2017-02-10T00:41:20.343Z,21.56
2017-02-10T00:41:40.036Z,21.61
2017-02-10T00:41:59.137Z,21.6
2017-02-10T00:42:18.862Z,21.66
2017-02-10T00:42:38.577Z,21.54
2017-02-10T00:42:58.368Z,21.63
2017-02-10T00:43:18.082Z,21.59
2017-02-10T00:43:37.814Z,21.59
2017-02-10T00:43:57.523Z,21.57
2017-02-10T00:44:17.235Z,21.63
2017-02-10T00:44:36.975Z,21.59
2017-02-10T00:44:56.680Z,21.54
2017-02-10T00:45:15.803Z,21.56
2017-02-10T00:45:35.530Z,21.51
2017-02-10T00:45:55.275Z,21.51
2017-02-10T00:46:14.982Z,21.48
2017-02-10T00:46:34.695Z,21.51
2017-02-10T00:46:54.406Z,21.45
2017-02-10T00:47:14.187Z,21.44
2017-02-10T00:47:33.905Z,21.45
2017-02-10T00:47:53.605Z,21.51
2017-02-10T00:48:13.343Z,21.51
2017-02-10T00:48:32.478Z,21.49
2017-02-10T00:48:52.202Z,21.54
2017-02-10T00:49:11.890Z,21.63
2017-02-10T00:49:31.609Z,21.63
2017-02-10T00:49:51.336Z,21.63
2017-02-10T00:50:11.033Z,21.54
2017-02-10T00:50:30.739Z,21.61
2017-02-10T00:50:50.422Z,21.57
2017-02-10T00:51:10.148Z,21.56
2017-02-10T00:51:29.880Z,21.57
2017-02-10T00:51:49.604Z,21.63
2017-02-10T00:52:09.346Z,21.67
2017-02-10T00:52:29.044Z,21.75
2017-02-10T00:52:48.796Z,21.74
2017-02-10T00:53:08.516Z,21.78
2017-02-10T00:53:28.234Z,21.76
2017-02-10T00:53:47.960Z,21.81
2017-02-10T00:54:07.680Z,21.81
2017-02-10T00:54:26.218Z,21.76
2017-02-10T00:54:45.916Z,21.79
2017-02-10T00:55:05.617Z,21.74
2017-02-10T00:55:24.719Z,21.63
2017-02-10T00:55:44.470Z,21.75
2017-02-10T00:56:04.151Z,21.74
2017-02-10T00:56:23.296Z,21.81
2017-02-10T00:56:42.989Z,21.78
2017-02-10T00:57:02.703Z,21.7
2017-02-10T00:57:22.408Z,21.78
2017-02-10T00:57:42.128Z,21.66
2017-02-10T00:58:01.842Z,21.69
2017-02-10T00:58:21.567Z,21.72
2017-02-10T00:58:41.311Z,21.74
2017-02-10T00:59:01.005Z,21.63
2017-02-10T00:59:20.707Z,21.56
2017-02-10T00:59:40.436Z,21.57
2017-02-10T01:00:00.173Z,21.63
2017-02-10T01:00:19.871Z,21.53
2017-02-10T01:00:39.569Z,21.56
2017-02-10T01:00:59.300Z,21.49
2017-02-10T01:01:18.422Z,21.46
2017-02-10T01:01:38.223Z,21.44
2017-02-10T01:01:57.356Z,21.49
2017-02-10T01:02:17.101Z,21.41
2017-02-10T01:02:36.790Z,21.42
2017-02-10T01:02:56.489Z,21.45
2017-02-10T01:03:16.224Z,21.45
2017-02-10T01:03:35.948Z,21.45
2017-02-10T01:03:55.629Z,21.48
2017-02-10T01:04:15.326Z,21.45
2017-02-10T01:04:35.071Z,21.41
2017-02-10T01:04:54.780Z,21.44
2017-02-10T01:05:14.496Z,21.42
2017-02-10T01:05:34.247Z,21.42
2017-02-10T01:05:53.990Z,21.41
2017-02-10T01:06:13.132Z,21.48
2017-02-10T01:06:32.860Z,21.44
2017-02-10T01:06:52.567Z,21.38
2017-02-10T01:07:11.021Z,21.35
2017-02-10T01:07:30.168Z,21.41
2017-02-10T01:07:49.266Z,21.38
2017-02-10T01:08:08.984Z,21.45
2017-02-10T01:08:28.711Z,21.45
2017-02-10T01:08:48.434Z,21.36
2017-02-10T01:09:08.157Z,21.35
2017-02-10T01:09:26.672Z,21.35
2017-02-10T01:09:46.380Z,21.39
2017-02-10T01:10:05.532Z,21.46
2017-02-10T01:10:25.297Z,21.51
2017-02-10T01:10:44.991Z,21.46
2017-02-10T01:11:04.754Z,21.48
2017-02-10T01:11:24.502Z,21.48
2017-02-10T01:11:44.209Z,21.44
2017-02-10T01:12:03.948Z,21.44
2017-02-10T01:12:23.684Z,21.45
2017-02-10T01:12:43.434Z,21.46
2017-02-10T01:13:01.922Z,21.48
2017-02-10T01:13:21.638Z,21.44
2017-02-10T01:13:40.784Z,21.46
2017-02-10T01:14:00.519Z,21.42
2017-02-10T01:14:20.188Z,21.45
2017-02-10T01:14:39.934Z,21.44
2017-02-10T01:14:59.649Z,21.42
2017-02-10T01:15:18.773Z,21.46
2017-02-10T01:15:38.452Z,21.48
2017-02-10T01:15:58.149Z,21.44
2017-02-10T01:16:17.904Z,21.45
2017-02-10T01:16:37.637Z,21.42
2017-02-10T01:16:57.364Z,21.51
2017-02-10T01:17:16.468Z,21.53
2017-02-10T01:17:36.182Z,21.56
2017-02-10T01:17:55.855Z,21.57
2017-02-10T01:18:15.583Z,21.59
2017-02-10T01:18:35.319Z,21.69
2017-02-10T01:18:55.011Z,21.7
2017-02-10T01:19:13.514Z,21.74
2017-02-10T01:19:33.206Z,21.59
2017-02-10T01:19:52.939Z,21.53
2017-02-10T01:20:12.650Z,21.67
2017-02-10T01:20:32.370Z,21.57
2017-02-10T01:20:52.101Z,21.57
2017-02-10T01:21:11.809Z,21.57
2017-02-10T01:21:32.197Z,21.56
2017-02-10T01:21:53.821Z,21.49
2017-02-10T01:22:13.574Z,21.53
2017-02-10T01:22:33.947Z,21.57
2017-02-10T01:22:54.329Z,21.41
2017-02-10T01:23:14.724Z,21.53
2017-02-10T01:23:35.193Z,21.49
2017-02-10T01:23:55.604Z,21.51
2017-02-10T01:24:16.037Z,21.46
2017-02-10T01:24:36.473Z,21.38
2017-02-10T01:24:56.875Z,21.38
2017-02-10T01:25:16.628Z,21.36
2017-02-10T01:25:37.031Z,21.38
2017-02-10T01:25:57.461Z,21.33
2017-02-10T01:26:18.093Z,21.36
2017-02-10T01:26:38.539Z,21.36
2017-02-10T01:26:58.985Z,21.44
2017-02-10T01:27:18.784Z,21.35
2017-02-10T01:27:39.208Z,21.41
2017-02-10T01:27:59.619Z,21.41
2017-02-10T01:28:19.390Z,21.44
2017-02-10T01:28:39.809Z,21.44
2017-02-10T01:29:00.226Z,21.41
2017-02-10T01:29:20.619Z,21.39
2017-02-10T01:29:40.966Z,21.45
2017-02-10T01:30:00.748Z,21.36
2017-02-10T01:30:21.161Z,21.36
2017-02-10T01:30:41.553Z,21.35
2017-02-10T01:31:01.952Z,21.26
2017-02-10T01:31:22.347Z,21.33
2017-02-10T01:31:56.515Z,21.31
2017-02-10T01:32:16.245Z,21.38
2017-02-10T01:32:36.646Z,21.41
2017-02-10T01:32:57.050Z,21.33
2017-02-10T01:33:16.768Z,21.41
2017-02-10T01:33:37.195Z,21.39
2017-02-10T01:33:57.624Z,21.41
2017-02-10T01:34:18.049Z,21.38
2017-02-10T01:34:38.497Z,21.44
2017-02-10T01:34:58.877Z,21.44
2017-02-10T01:35:19.488Z,21.44
2017-02-10T01:35:39.888Z,21.44
2017-02-10T01:36:00.304Z,21.39
2017-02-10T01:36:20.734Z,21.45
2017-02-10T01:36:41.154Z,21.39
2017-02-10T01:37:01.547Z,21.41
2017-02-10T01:37:21.982Z,21.46
2017-02-10T01:37:42.376Z,21.48
2017-02-10T01:38:02.127Z,21.51
2017-02-10T01:38:21.872Z,21.44
2017-02-10T01:38:42.276Z,21.35
2017-02-10T01:39:02.020Z,21.39
2017-02-10T01:39:22.432Z,21.42
2017-02-10T01:39:42.761Z,21.39
2017-02-10T01:40:37.342Z,21.33
2017-02-10T01:40:57.737Z,21.3
2017-02-10T01:41:17.504Z,21.45
2017-02-10T01:41:37.928Z,21.36
2017-02-10T01:41:58.328Z,21.42
2017-02-10T01:42:18.739Z,21.49
2017-02-10T01:42:39.145Z,21.45
2017-02-10T01:42:59.625Z,21.39
2017-02-10T01:43:20.024Z,21.42
2017-02-10T01:43:40.428Z,21.48
2017-02-10T01:44:00.820Z,21.53
2017-02-10T01:44:21.206Z,21.46
2017-02-10T01:44:41.643Z,21.42
2017-02-10T01:45:02.247Z,21.42
2017-02-10T01:45:22.641Z,21.53
2017-02-10T01:45:43.002Z,21.42
2017-02-10T01:46:03.448Z,21.46
2017-02-10T01:46:23.166Z,21.54
2017-02-10T01:46:43.553Z,21.49
2017-02-10T01:47:03.955Z,21.51
2017-02-10T01:47:23.681Z,21.42
2017-02-10T01:47:44.078Z,21.42
2017-02-10T01:48:04.493Z,21.46
2017-02-10T01:48:24.891Z,21.48
2017-02-10T01:48:45.283Z,21.48
2017-02-10T01:49:05.664Z,21.57
2017-02-10T01:49:25.396Z,21.49
2017-02-10T01:49:45.160Z,21.46
2017-02-10T01:50:05.578Z,21.44
2017-02-10T01:50:25.349Z,21.45
2017-02-10T01:50:45.753Z,21.46
2017-02-10T01:51:06.163Z,21.46
2017-02-10T01:51:26.563Z,21.49
2017-02-10T01:51:46.967Z,21.49
2017-02-10T01:52:07.370Z,21.48
2017-02-10T01:52:27.734Z,21.56
2017-02-10T01:52:48.111Z,21.56
2017-02-10T01:53:08.795Z,21.46
2017-02-10T01:53:29.206Z,21.53
2017-02-10T01:53:49.627Z,21.51
2017-02-10T01:54:09.349Z,21.45
2017-02-10T01:54:29.720Z,21.48
2017-02-10T01:54:50.121Z,21.42
2017-02-10T01:55:10.532Z,21.41
2017-02-10T01:55:30.897Z,21.45
2017-02-10T01:55:51.286Z,21.51
2017-02-10T01:56:11.030Z,21.44
2017-02-10T01:56:31.465Z,21.51
2017-02-10T01:56:51.837Z,21.56
2017-02-10T01:57:12.272Z,21.6
2017-02-10T01:57:32.746Z,21.57
2017-02-10T01:57:53.141Z,21.49
2017-02-10T01:58:12.870Z,21.51
2017-02-10T01:58:33.236Z,21.45
2017-02-10T01:58:53.618Z,21.45
2017-02-10T01:59:13.999Z,21.42
2017-02-10T01:59:34.570Z,21.48
2017-02-10T01:59:54.968Z,21.49
2017-02-10T02:00:15.383Z,21.46
2017-02-10T02:00:35.787Z,21.45
2017-02-10T02:00:56.159Z,21.49
2017-02-10T02:01:16.565Z,21.48
2017-02-10T02:01:36.980Z,21.53
2017-02-10T02:01:57.476Z,21.59
2017-02-10T02:02:17.915Z,21.6
2017-02-10T02:02:38.444Z,21.56
2017-02-10T02:02:58.966Z,21.54
2017-02-10T02:03:19.341Z,21.53
2017-02-10T02:03:39.719Z,21.61
2017-02-10T02:04:00.102Z,21.7
2017-02-10T02:04:20.511Z,21.72
2017-02-10T02:04:40.906Z,21.69
2017-02-10T02:05:01.311Z,21.7
2017-02-10T02:05:21.719Z,21.7
2017-02-10T02:05:42.121Z,21.75
2017-02-10T02:06:02.542Z,21.78
2017-02-10T02:06:22.920Z,21.67
2017-02-10T02:06:43.318Z,21.78
2017-02-10T02:07:03.769Z,21.79
2017-02-10T02:07:24.161Z,21.76
2017-02-10T02:07:44.572Z,21.82
2017-02-10T02:08:04.335Z,21.69
2017-02-10T02:08:24.742Z,21.78
2017-02-10T02:08:45.181Z,21.78
2017-02-10T02:09:04.961Z,21.79
2017-02-10T02:09:25.361Z,21.79
2017-02-10T02:09:45.094Z,21.76
2017-02-10T02:10:05.518Z,21.72
2017-02-10T02:10:25.947Z,21.64
2017-02-10T02:10:46.344Z,21.61
2017-02-10T02:11:06.056Z,21.53
2017-02-10T02:11:26.481Z,21.6
2017-02-10T02:11:46.876Z,21.53
2017-02-10T02:12:07.261Z,21.56
2017-02-10T02:12:27.034Z,21.63
2017-02-10T02:12:47.442Z,21.57
2017-02-10T02:13:07.214Z,21.57
2017-02-10T02:13:27.570Z,21.7
2017-02-10T02:13:47.942Z,21.75
2017-02-10T02:14:08.367Z,21.75
2017-02-10T02:14:28.112Z,21.78
2017-02-10T02:14:48.501Z,21.76
2017-02-10T02:15:08.883Z,21.76
2017-02-10T02:15:29.292Z,21.79
2017-02-10T02:15:49.646Z,21.84
2017-02-10T02:16:10.072Z,21.78
2017-02-10T02:16:30.503Z,21.76
2017-02-10T02:16:50.889Z,21.66
2017-02-10T02:17:11.297Z,21.66
2017-02-10T02:17:31.689Z,21.64
2017-02-10T02:17:52.112Z,21.59
2017-02-10T02:18:12.532Z,21.63
2017-02-10T02:18:32.936Z,21.66
2017-02-10T02:18:53.308Z,21.69
2017-02-10T02:19:13.769Z,21.74
2017-02-10T02:19:34.172Z,21.75
2017-02-10T02:19:54.568Z,21.75
2017-02-10T02:20:14.296Z,21.75
2017-02-10T02:20:34.650Z,21.79
2017-02-10T02:20:55.048Z,21.79
2017-02-10T02:21:14.823Z,21.81
2017-02-10T02:21:35.218Z,21.79
2017-02-10T02:21:55.576Z,21.76
2017-02-10T02:22:15.963Z,21.72
2017-02-10T02:22:36.386Z,21.76
2017-02-10T02:22:56.879Z,21.75
2017-02-10T02:23:17.313Z,21.84
2017-02-10T02:23:38.322Z,21.79
2017-02-10T02:23:58.713Z,21.78
2017-02-10T02:24:19.079Z,21.82
2017-02-10T02:24:39.467Z,21.86
2017-02-10T02:24:59.880Z,21.79
2017-02-10T02:25:34.042Z,21.81
2017-02-10T02:25:54.447Z,21.84
2017-02-10T02:26:14.837Z,21.78
2017-02-10T02:26:35.249Z,21.78
2017-02-10T02:26:55.630Z,21.79
2017-02-10T02:27:16.013Z,21.82
2017-02-10T02:27:36.431Z,21.81
2017-02-10T02:27:57.082Z,21.84
2017-02-10T02:28:17.462Z,21.81
2017-02-10T02:28:37.886Z,21.75
2017-02-10T02:28:58.267Z,21.78
2017-02-10T02:29:18.692Z,21.72
2017-02-10T02:29:39.104Z,21.74
2017-02-10T02:29:59.557Z,21.67
2017-02-10T02:30:19.970Z,21.74
2017-02-10T02:30:40.306Z,21.74
2017-02-10T02:31:00.729Z,21.69
2017-02-10T02:31:21.147Z,21.59
2017-02-10T02:31:41.563Z,21.59
2017-02-10T02:32:01.972Z,21.57
2017-02-10T02:32:22.352Z,21.67
2017-02-10T02:32:42.723Z,21.66
2017-02-10T02:33:03.119Z,21.63
2017-02-10T02:33:23.523Z,21.63
2017-02-10T02:33:43.904Z,21.59
2017-02-10T02:34:04.303Z,21.54
2017-02-10T02:34:24.037Z,21.59
2017-02-10T02:34:44.431Z,21.6
2017-02-10T02:35:04.806Z,21.59
2017-02-10T02:35:25.238Z,21.54
2017-02-10T02:35:45.626Z,21.63
2017-02-10T02:36:06.037Z,21.63
2017-02-10T02:36:26.471Z,21.59
2017-02-10T02:36:46.888Z,21.49
2017-02-10T02:37:06.670Z,21.57
2017-02-10T02:37:27.063Z,21.53
2017-02-10T02:37:47.435Z,21.48
2017-02-10T02:38:07.201Z,21.49
2017-02-10T02:38:27.658Z,21.51
2017-02-10T02:38:48.101Z,21.53
2017-02-10T02:39:08.512Z,21.61
2017-02-10T02:39:28.895Z,21.49
2017-02-10T02:39:49.289Z,21.53
2017-02-10T02:40:09.034Z,21.57
2017-02-10T02:40:29.455Z,21.6
2017-02-10T02:40:49.838Z,21.61
2017-02-10T02:41:10.275Z,21.53
2017-02-10T02:41:30.045Z,21.59
2017-02-10T02:41:50.449Z,21.59
2017-02-10T02:42:10.806Z,21.69
2017-02-10T02:42:31.182Z,21.6
2017-02-10T02:42:51.687Z,21.69
2017-02-10T02:43:11.416Z,21.69
2017-02-10T02:43:31.159Z,21.76
2017-02-10T02:43:51.532Z,21.76
2017-02-10T02:44:10.678Z,21.74
2017-02-10T02:44:31.104Z,21.66
2017-02-10T02:44:51.493Z,21.66
2017-02-10T02:45:11.912Z,21.64
2017-02-10T02:45:32.294Z,21.56
2017-02-10T02:45:52.686Z,21.53
2017-02-10T02:46:12.438Z,21.59
2017-02-10T02:46:32.864Z,21.51
2017-02-10T02:46:53.271Z,21.63
2017-02-10T02:47:13.666Z,21.53
2017-02-10T02:47:33.471Z,21.48
2017-02-10T02:47:53.888Z,21.42
2017-02-10T02:48:14.282Z,21.49
2017-02-10T02:48:34.727Z,21.51
2017-02-10T02:48:55.109Z,21.57
2017-02-10T02:49:14.860Z,21.57
2017-02-10T02:49:35.249Z,21.6
2017-02-10T02:49:55.648Z,21.61
2017-02-10T02:50:15.613Z,21.66
2017-02-10T02:50:36.030Z,21.61
2017-02-10T02:50:56.446Z,21.6
2017-02-10T02:51:16.201Z,21.6
2017-02-10T02:51:36.606Z,21.64
2017-02-10T02:51:57.033Z,21.63
2017-02-10T02:52:17.459Z,21.56
2017-02-10T02:52:37.823Z,21.66
2017-02-10T02:52:58.226Z,21.63
2017-02-10T02:53:18.611Z,21.67
2017-02-10T02:53:38.985Z,21.72
2017-02-10T02:53:59.393Z,21.75
2017-02-10T02:54:19.852Z,21.72
2017-02-10T02:54:40.236Z,21.6
2017-02-10T02:55:00.607Z,21.61
2017-02-10T02:55:20.367Z,21.57
2017-02-10T02:55:40.755Z,21.63
2017-02-10T02:56:01.175Z,21.61
2017-02-10T02:56:21.583Z,21.64
2017-02-10T02:56:41.999Z,21.59
2017-02-10T02:57:02.448Z,21.72
2017-02-10T02:57:22.849Z,21.59
2017-02-10T02:57:43.237Z,21.61
2017-02-10T02:58:03.884Z,21.6
2017-02-10T02:58:24.301Z,21.53
2017-02-10T02:58:44.734Z,21.56
2017-02-10T02:59:05.119Z,21.56
2017-02-10T02:59:25.552Z,21.56
2017-02-10T02:59:45.296Z,21.49
2017-02-10T03:00:05.687Z,21.48
2017-02-10T03:00:26.109Z,21.49
2017-02-10T03:00:48.430Z,21.46
2017-02-10T03:01:08.839Z,21.51
2017-02-10T03:01:29.240Z,21.48
2017-02-10T03:01:49.613Z,21.53
2017-02-10T03:02:08.757Z,21.51
2017-02-10T03:02:28.524Z,21.51
2017-02-10T03:02:48.974Z,21.46
2017-02-10T03:03:09.416Z,21.45
2017-02-10T03:03:29.853Z,21.46
2017-02-10T03:03:50.206Z,21.42
2017-02-10T03:04:10.586Z,21.44
2017-02-10T03:04:30.969Z,21.45
2017-02-10T03:04:51.373Z,21.42
2017-02-10T03:05:11.785Z,21.45
2017-02-10T03:05:32.194Z,21.44
2017-02-10T03:05:52.590Z,21.38
2017-02-10T03:06:13.008Z,21.48
2017-02-10T03:06:32.738Z,21.48
2017-02-10T03:06:53.146Z,21.42
2017-02-10T03:07:13.573Z,21.48
2017-02-10T03:07:33.944Z,21.39
2017-02-10T03:07:54.351Z,21.42
2017-02-10T03:08:14.108Z,21.46
2017-02-10T03:08:34.552Z,21.51
2017-02-10T03:08:54.926Z,21.51
2017-02-10T03:09:14.046Z,21.6
2017-02-10T03:09:34.467Z,21.6
2017-02-10T03:09:54.847Z,21.56
2017-02-10T03:10:15.459Z,21.64
2017-02-10T03:10:35.854Z,21.64
2017-02-10T03:10:56.223Z,21.61
2017-02-10T03:11:15.987Z,21.75
2017-02-10T03:11:36.371Z,21.72
2017-02-10T03:11:56.774Z,21.69
2017-02-10T03:12:17.143Z,21.64
2017-02-10T03:12:37.540Z,21.72
2017-02-10T03:12:58.050Z,21.72
2017-02-10T03:13:17.819Z,21.67
2017-02-10T03:13:38.193Z,21.67
2017-02-10T03:13:58.623Z,21.67
2017-02-10T03:14:28.340Z,21.63
2017-02-10T03:14:48.757Z,21.61
2017-02-10T03:15:09.125Z,21.64
2017-02-10T03:15:29.529Z,21.56
2017-02-10T03:15:49.938Z,21.56
2017-02-10T03:16:10.278Z,21.57
2017-02-10T03:16:30.697Z,21.56
2017-02-10T03:16:51.097Z,21.56
2017-02-10T03:17:11.484Z,21.46
2017-02-10T03:17:31.947Z,21.51
2017-02-10T03:17:52.326Z,21.49
2017-02-10T03:18:12.069Z,21.45
2017-02-10T03:18:31.857Z,21.48
2017-02-10T03:18:52.243Z,21.42
2017-02-10T03:19:12.610Z,21.39
2017-02-10T03:19:32.370Z,21.46
2017-02-10T03:19:52.829Z,21.48
2017-02-10T03:20:11.979Z,21.54
2017-02-10T03:20:31.728Z,21.53
2017-02-10T03:20:52.127Z,21.51
2017-02-10T03:21:12.527Z,21.48
2017-02-10T03:21:32.892Z,21.51
2017-02-10T03:21:53.287Z,21.53
2017-02-10T03:22:13.707Z,21.49
2017-02-10T03:22:34.120Z,21.46
2017-02-10T03:22:53.877Z,21.48
2017-02-10T03:23:14.296Z,21.45
2017-02-10T03:23:34.684Z,21.46
2017-02-10T03:23:55.034Z,21.53
2017-02-10T03:24:15.446Z,21.57
2017-02-10T03:24:35.837Z,21.56
2017-02-10T03:24:55.571Z,21.6
2017-02-10T03:25:15.968Z,21.56
2017-02-10T03:25:36.353Z,21.53
2017-02-10T03:25:56.740Z,21.67
2017-02-10T03:26:17.165Z,21.69
2017-02-10T03:26:37.593Z,21.75
2017-02-10T03:26:57.991Z,21.67
2017-02-10T03:27:17.764Z,21.6
2017-02-10T03:27:38.151Z,21.6
2017-02-10T03:27:58.603Z,21.53
2017-02-10T03:28:18.348Z,21.56
2017-02-10T03:28:38.747Z,21.53
2017-02-10T03:28:59.152Z,21.48
2017-02-10T03:29:19.554Z,21.42
2017-02-10T03:29:39.955Z,21.53
2017-02-10T03:29:59.720Z,21.42
2017-02-10T03:30:19.662Z,21.42
2017-02-10T03:30:40.031Z,21.48
2017-02-10T03:31:00.438Z,21.46
2017-02-10T03:31:20.833Z,21.49
2017-02-10T03:31:41.243Z,21.42
2017-02-10T03:32:00.993Z,21.45
2017-02-10T03:32:20.770Z,21.45
2017-02-10T03:32:41.134Z,21.51
2017-02-10T03:33:01.033Z,21.51
2017-02-10T03:33:21.432Z,21.44
2017-02-10T03:33:41.883Z,21.51
2017-02-10T03:34:02.255Z,21.49
2017-02-10T03:34:22.713Z,21.45
2017-02-10T03:34:43.103Z,21.42
2017-02-10T03:35:03.499Z,21.45
2017-02-10T03:35:23.891Z,21.48
2017-02-10T03:35:44.302Z,21.3
2017-02-10T03:36:04.691Z,21.33
2017-02-10T03:36:24.450Z,21.3
2017-02-10T03:36:44.256Z,21.3
2017-02-10T03:37:04.703Z,21.35
2017-02-10T03:37:25.095Z,21.26
2017-02-10T03:37:45.504Z,21.38
2017-02-10T03:38:06.059Z,21.31
2017-02-10T03:38:25.157Z,21.3
2017-02-10T03:38:45.593Z,21.2
2017-02-10T03:39:05.970Z,21.26
2017-02-10T03:39:26.370Z,21.33
2017-02-10T03:39:46.780Z,21.35
2017-02-10T03:40:07.193Z,21.36
2017-02-10T03:40:27.632Z,21.42
2017-02-10T03:40:48.105Z,21.45
2017-02-10T03:41:07.842Z,21.41
2017-02-10T03:41:28.256Z,21.49
2017-02-10T03:41:48.660Z,21.51
2017-02-10T03:42:09.041Z,21.51
2017-02-10T03:42:29.459Z,21.54
2017-02-10T03:42:49.861Z,21.56
2017-02-10T03:43:10.381Z,21.59
2017-02-10T03:43:30.801Z,21.74
2017-02-10T03:43:51.187Z,21.7
2017-02-10T03:44:11.568Z,21.72
2017-02-10T03:44:31.956Z,21.69
2017-02-10T03:44:52.322Z,21.48
2017-02-10T03:45:12.722Z,21.51
2017-02-10T03:45:33.119Z,21.42
2017-02-10T03:45:53.526Z,21.48
2017-02-10T03:46:13.927Z,21.48
2017-02-10T03:46:34.345Z,21.46
2017-02-10T03:46:54.753Z,21.46
2017-02-10T03:47:14.485Z,21.48
2017-02-10T03:47:34.927Z,21.38
2017-02-10T03:47:55.309Z,21.33
2017-02-10T03:48:15.055Z,21.36
2017-02-10T03:48:35.440Z,21.36
2017-02-10T03:48:55.882Z,21.35
2017-02-10T03:49:16.290Z,21.38
2017-02-10T03:49:36.733Z,21.48
2017-02-10T03:49:57.147Z,21.45
2017-02-10T03:50:17.577Z,21.45
2017-02-10T03:50:37.978Z,21.48
2017-02-10T03:50:58.370Z,21.39
2017-02-10T03:51:18.792Z,21.44
2017-02-10T03:51:39.198Z,21.42
2017-02-10T03:51:59.600Z,21.46
2017-02-10T03:52:18.053Z,21.45
2017-02-10T03:52:38.457Z,21.42
2017-02-10T03:52:58.843Z,21.45
2017-02-10T03:53:18.568Z,21.41
2017-02-10T03:53:38.953Z,21.38
2017-02-10T03:53:59.371Z,21.35
2017-02-10T03:54:19.121Z,21.21
2017-02-10T03:54:39.485Z,21.23
2017-02-10T03:54:59.892Z,21.24
2017-02-10T03:55:19.638Z,21.3
2017-02-10T03:55:40.028Z,21.26
2017-02-10T03:56:00.506Z,21.38
2017-02-10T03:56:20.896Z,21.33
2017-02-10T03:56:41.303Z,21.36
2017-02-10T03:57:01.659Z,21.26
2017-02-10T03:57:22.048Z,21.29
2017-02-10T03:57:42.488Z,21.35
2017-02-10T03:58:02.904Z,21.26
2017-02-10T03:58:23.273Z,21.33
2017-02-10T03:58:43.701Z,21.33
2017-02-10T03:59:04.103Z,21.29
2017-02-10T03:59:23.831Z,21.21
2017-02-10T03:59:44.181Z,21.35
2017-02-10T04:00:04.622Z,21.35
2017-02-10T04:00:24.366Z,21.35
2017-02-10T04:00:44.742Z,21.29
2017-02-10T04:01:05.143Z,21.31
2017-02-10T04:01:25.544Z,21.26
2017-02-10T04:01:45.982Z,21.36
2017-02-10T04:02:06.412Z,21.21
2017-02-10T04:02:26.794Z,21.38
2017-02-10T04:02:47.204Z,21.35
2017-02-10T04:03:07.871Z,21.3
2017-02-10T04:03:26.990Z,21.3
2017-02-10T04:03:47.395Z,21.27
2017-02-10T04:04:07.801Z,21.29
2017-02-10T04:04:28.185Z,21.35
2017-02-10T04:04:48.577Z,21.36
2017-02-10T04:05:22.710Z,21.27
2017-02-10T04:05:43.090Z,21.23
2017-02-10T04:06:03.494Z,21.31
2017-02-10T04:06:23.912Z,21.3
2017-02-10T04:06:44.302Z,21.35
2017-02-10T04:07:04.716Z,21.3
2017-02-10T04:07:24.484Z,21.38
2017-02-10T04:07:44.838Z,21.3
2017-02-10T04:08:04.603Z,21.23
2017-02-10T04:08:24.988Z,21.33
2017-02-10T04:08:45.391Z,21.26
2017-02-10T04:09:05.772Z,21.31
2017-02-10T04:09:25.499Z,21.27
2017-02-10T04:09:45.294Z,21.35
2017-02-10T04:10:05.680Z,21.21
2017-02-10T04:10:26.136Z,21.38
2017-02-10T04:10:46.547Z,21.36
2017-02-10T04:11:06.940Z,21.35
2017-02-10T04:11:26.688Z,21.41
2017-02-10T04:11:47.064Z,21.45
2017-02-10T04:12:07.745Z,21.44
2017-02-10T04:12:47.034Z,21.38
2017-02-10T04:13:07.600Z,21.38
2017-02-10T04:13:27.968Z,21.45
2017-02-10T04:13:48.342Z,21.36
2017-02-10T04:14:08.094Z,21.48
2017-02-10T04:14:28.500Z,21.45
2017-02-10T04:14:48.266Z,21.41
2017-02-10T04:15:08.892Z,21.45
2017-02-10T04:15:29.322Z,21.44
2017-02-10T04:15:49.736Z,21.45
2017-02-10T04:16:10.114Z,21.41
2017-02-10T04:16:30.485Z,21.41
2017-02-10T04:16:50.900Z,21.51
2017-02-10T04:17:11.289Z,21.51
2017-02-10T04:17:31.662Z,21.44
2017-02-10T04:17:52.060Z,21.46
2017-02-10T04:18:12.440Z,21.53
2017-02-10T04:18:32.902Z,21.49
2017-02-10T04:18:53.334Z,21.49
2017-02-10T04:19:13.100Z,21.48
2017-02-10T04:19:33.486Z,21.54
2017-02-10T04:19:53.884Z,21.46
2017-02-10T04:20:13.648Z,21.53
2017-02-10T04:20:34.047Z,21.42
2017-02-10T04:20:54.428Z,21.51